• Join FlightAware (Why Join?)
  • Login
  • US Flag 
08:43PM EDT


 

Airport Tracker/Info


-or-


 

Live Flight TrackerFlight Track Log ✈ QXE2633 ✈ 14-Aug-2013 ✈ KPDX - KSMF

Flight Track Log - Related Links

Times and Time Zones

All times are in EDT time to prevent confusion due to time zone crossing. See the QXE2633 flight status page for this flight to view local times or setup timezone preferences in your user account.

Time Position Orientation Groundspeed Altitude Reporting Facility
EDT Latitude Longitude Course Direction KTS MPH feet Rate Location/Type
05:37PM 45.0426 -122.4065 170° South  Level FlightAware Approximate
05:38PM 44.9641 -122.3895 172° South  Level FlightAware Approximate
05:39PM 44.8854 -122.3737 172° South  Level FlightAware Approximate
05:40PM 44.8073 -122.3538 168° South  Level FlightAware Approximate
05:41PM 44.7296 -122.3305 168° South  Level FlightAware Approximate
05:42PM 44.6518 -122.3087 170° South  Level FlightAware Approximate
05:43PM 44.5736 -122.2892 170° South  Level FlightAware Approximate
05:44PM 44.4954 -122.2697 170° South  Level FlightAware Approximate
05:45PM 44.4168 -122.2533 172° South  Level FlightAware Approximate
05:46PM 44.3384 -122.2351 170° South  Level FlightAware Approximate
05:47PM 44.2602 -122.2163 170° South  Level FlightAware Approximate
05:48PM 44.1819 -122.1975 170° South  Level FlightAware Approximate
05:49PM 44.1036 -122.1787 170° South  Level FlightAware Approximate
05:50PM 44.0253 -122.1600 170° South  Level FlightAware Approximate
05:51PM 43.9471 -122.1411 170° South  Level FlightAware Approximate
05:52PM 43.8689 -122.1218 170° South  Level FlightAware Approximate
05:53PM 43.7907 -122.1026 170° South  Level FlightAware Approximate
05:54PM 43.7124 -122.0835 170° South  Level FlightAware Approximate
05:55PM 43.6342 -122.0644 170° South  Level FlightAware Approximate
05:56PM 43.5560 -122.0453 170° South  Level FlightAware Approximate
05:57PM 43.4778 -122.0263 170° South  Level FlightAware Approximate
05:58PM 43.3995 -122.0074 170° South  Level FlightAware Approximate
05:59PM 43.3257 -121.9895 170° South  Level FlightAware Approximate
06:00PM 43.2519 -121.9720 170° South  Level FlightAware Approximate
06:01PM 43.1781 -121.9546 170° South  Level FlightAware Approximate
06:02PM 43.1042 -121.9372 170° South  Level FlightAware Approximate
06:03PM 43.0303 -121.9199 170° South  Level FlightAware Approximate
06:04PM 42.9565 -121.9026 170° South  Level FlightAware Approximate
06:05PM 42.8826 -121.8854 170° South  Level FlightAware Approximate
06:06PM 42.8088 -121.8682 170° South  Level FlightAware Approximate
06:07PM 42.7349 -121.8511 170° South  Level FlightAware Approximate
06:08PM 42.6610 -121.8339 170° South  Level FlightAware Approximate
06:09PM 42.5872 -121.8169 170° South  Level FlightAware Approximate
06:10PM 42.5133 -121.7998 170° South  Level FlightAware Approximate
06:11PM 42.4394 -121.7829 170° South  Level FlightAware Approximate
06:12PM 42.3655 -121.7659 170° South  Level FlightAware Approximate
06:13PM 42.2916 -121.7490 170° South  Level FlightAware Approximate
06:14PM 42.2178 -121.7321 170° South  Level FlightAware Approximate
06:15PM 42.1438 -121.7167 180° South  Level FlightAware Approximate
06:16PM 42.0689 -121.7167 180° South  Level FlightAware Approximate
06:17PM 41.9939 -121.7167 180° South  Level FlightAware Approximate
06:18PM 41.9190 -121.7167 180° South  Level FlightAware Approximate
06:19PM 41.8441 -121.7167 180° South  Level FlightAware Approximate
06:20PM 41.7691 -121.7167 180° South  Level FlightAware Approximate
06:21PM 41.6942 -121.7167 180° South  Level FlightAware Approximate
06:22PM 41.6193 -121.7167 180° South  Level FlightAware Approximate
06:23PM 41.5444 -121.7167 180° South  Level FlightAware Approximate
06:24PM 41.4694 -121.7167 180° South  Level FlightAware Approximate
06:25PM 41.3945 -121.7167 180° South  Level FlightAware Approximate
06:26PM 41.3196 -121.7167 180° South  Level FlightAware Approximate
06:27PM 41.2446 -121.7167 180° South  Level FlightAware Approximate
06:28PM 41.1697 -121.7167 180° South  Level FlightAware Approximate
06:29PM 41.0948 -121.7167 180° South  Level FlightAware Approximate
06:30PM 41.0198 -121.7167 180° South  Level FlightAware Approximate
06:31PM 40.9449 -121.7167 180° South  Level FlightAware Approximate
06:32PM 40.8700 -121.7167 180° South  Level FlightAware Approximate
06:33PM 40.7950 -121.7167 180° South  Level FlightAware Approximate
06:34PM 40.7201 -121.7167 180° South  Level FlightAware Approximate
06:35PM 40.6452 -121.7167 180° South  Level FlightAware Approximate
06:36PM 40.5703 -121.7167 180° South  Level FlightAware Approximate
06:37PM 40.4953 -121.7167 180° South  Level FlightAware Approximate
06:38PM 40.4205 -121.7141 171° South  Level FlightAware Approximate
06:39PM 40.3464 -121.6997 176° South  Level FlightAware Approximate
06:40PM 40.2717 -121.6929 176° South  Level FlightAware Approximate
06:41PM 40.1969 -121.6861 176° South  Level FlightAware Approximate
06:42PM 40.1221 -121.6833 180° South  Level FlightAware Approximate
06:43PM 40.0473 -121.6775 175° South  Level FlightAware Approximate
06:44PM 39.9733 -121.6693 175° South  Level FlightAware Approximate
06:45PM 39.8992 -121.6620 176° South  Level FlightAware Approximate
06:46PM 39.8250 -121.6553 176° South  Level FlightAware Approximate
06:47PM 39.7509 -121.6485 176° South  Level FlightAware Approximate
06:48PM 39.6768 -121.6418 176° South  Level FlightAware Approximate
06:49PM 39.6026 -121.6351 176° South  Level FlightAware Approximate
06:50PM 39.5284 -121.6333 180° South  Level FlightAware Approximate
06:51PM 39.4541 -121.6304 176° South  Level FlightAware Approximate
06:52PM 39.3800 -121.6230 176° South  Level FlightAware Approximate
06:53PM 39.3059 -121.6167 180° South  Level FlightAware Approximate
06:54PM 39.2316 -121.6164 174° South  Level FlightAware Approximate
06:55PM 39.1573 -121.6071 174° South  Level FlightAware Approximate
06:56PM 39.0830 -121.5976 174° South  Level FlightAware Approximate
06:57PM 39.0088 -121.5870 174° South  Level FlightAware Approximate
06:58PM 38.9343 -121.5833 180° South  Level FlightAware Approximate
06:59PM 38.8596 -121.5833 180° South  Level FlightAware Approximate
07:00PM 38.7849 -121.5833 180° South  Level FlightAware Approximate
07:01PM 38.7103 -121.5833 180° South  Level FlightAware Approximate
07:02PM 38.6954 -121.5908 180° South  Level Estimated
07:03PM 38.6954 -121.5908 180° South  Level Estimated
07:04PM 38.6954 -121.5908 180° South  Level Estimated
07:05PM 38.6954 -121.5908 180° South  Level Estimated
07:06PM 38.6954 -121.5908 180° South  Level Estimated
07:07PM 38.6954 -121.5908 180° South  Level Estimated
07:08PM 38.6954 -121.5908 180° South  Level Estimated
07:09PM 38.6954 -121.5908 180° South  Level Estimated
07:10PM 38.6954 -121.5908 180° South  Level Estimated
07:11PM 38.6954 -121.5908 180° South  Level Estimated
07:12PM 38.6954 -121.5908 180° South  Level Estimated